createdAt,value
2023-05-18T00:02:23.450Z,7.40
2023-05-18T00:04:51.679Z,7.30
2023-05-18T00:07:19.745Z,7.30
2023-05-18T00:09:47.718Z,7.20
2023-05-18T00:12:16.585Z,7.20
2023-05-18T00:14:45.930Z,7.20
2023-05-18T00:17:14.773Z,7.20
2023-05-18T00:19:42.841Z,7.20
2023-05-18T00:22:11.284Z,7.20
2023-05-18T00:24:39.337Z,7.20
2023-05-18T00:27:08.134Z,7.20
2023-05-18T00:29:36.179Z,7.20
2023-05-18T00:32:06.229Z,7.30
2023-05-18T00:34:35.132Z,7.30
2023-05-18T00:37:04.593Z,7.30
2023-05-18T00:39:32.548Z,7.40
2023-05-18T00:42:00.512Z,7.30
2023-05-18T00:44:29.050Z,7.40
2023-05-18T00:46:56.970Z,7.40
2023-05-18T00:49:27.798Z,7.40
2023-05-18T00:51:56.249Z,7.40
2023-05-18T00:54:27.392Z,7.40
2023-05-18T00:56:55.568Z,7.50
2023-05-18T00:59:23.525Z,7.50
2023-05-18T01:01:53.782Z,7.60
2023-05-18T01:04:24.125Z,7.60
2023-05-18T01:06:56.733Z,7.50
2023-05-18T01:09:25.700Z,7.50
2023-05-18T01:12:02.802Z,7.50
2023-05-18T01:14:35.051Z,7.60
2023-05-18T01:17:12.830Z,7.70
2023-05-18T01:20:08.974Z,7.70
2023-05-18T01:22:56.702Z,7.80
2023-05-18T01:25:49.313Z,7.80
2023-05-18T01:28:22.167Z,7.80
2023-05-18T01:30:50.905Z,7.80
2023-05-18T01:33:19.031Z,7.80
2023-05-18T01:35:48.426Z,7.80
2023-05-18T01:38:20.696Z,7.80
2023-05-18T01:41:02.194Z,7.80
2023-05-18T01:43:34.938Z,7.90
2023-05-18T01:46:13.006Z,8.00
2023-05-18T01:48:47.310Z,7.90
2023-05-18T01:51:17.841Z,8.00
2023-05-18T01:54:01.745Z,8.00
2023-05-18T01:56:33.053Z,8.00
2023-05-18T01:59:04.364Z,8.00
2023-05-18T02:01:32.550Z,8.10
2023-05-18T02:04:00.648Z,8.10
2023-05-18T02:06:31.954Z,8.00
2023-05-18T02:08:59.963Z,8.00
2023-05-18T02:11:28.276Z,8.00
2023-05-18T02:13:56.339Z,8.00
2023-05-18T02:16:25.715Z,8.00
2023-05-18T02:18:54.473Z,8.00
2023-05-18T02:21:22.768Z,7.90
2023-05-18T02:23:50.925Z,8.00
2023-05-18T02:26:19.169Z,7.90
2023-05-18T02:28:53.546Z,7.80
2023-05-18T02:31:23.172Z,7.80
2023-05-18T02:33:52.610Z,7.80
2023-05-18T02:36:22.634Z,7.70
2023-05-18T02:38:51.070Z,7.80
2023-05-18T02:41:19.056Z,7.80
2023-05-18T02:43:47.095Z,7.90
2023-05-18T02:46:15.162Z,7.90
2023-05-18T02:48:45.657Z,7.90
2023-05-18T02:51:15.426Z,7.90
2023-05-18T02:53:44.221Z,7.90
2023-05-18T02:56:14.641Z,7.90
2023-05-18T02:58:57.533Z,7.90
2023-05-18T03:01:30.970Z,7.90
2023-05-18T03:03:59.013Z,7.80
2023-05-18T03:06:30.408Z,7.90
2023-05-18T03:08:59.058Z,7.90
2023-05-18T03:11:35.260Z,7.90
2023-05-18T03:14:03.392Z,7.80
2023-05-18T03:16:31.350Z,7.80
2023-05-18T03:19:02.182Z,7.70
2023-05-18T03:21:38.748Z,7.70
2023-05-18T03:24:08.259Z,7.60
2023-05-18T03:26:41.792Z,7.50
2023-05-18T03:29:11.321Z,7.50
2023-05-18T03:31:39.447Z,7.40
2023-05-18T03:34:07.505Z,7.40
2023-05-18T03:36:38.447Z,7.40
2023-05-18T03:39:08.459Z,7.40
2023-05-18T03:41:36.700Z,7.40
2023-05-18T03:44:04.778Z,7.40
2023-05-18T03:46:32.890Z,7.40
2023-05-18T03:49:01.071Z,7.40
2023-05-18T03:51:37.656Z,7.50
2023-05-18T03:54:07.873Z,7.50
2023-05-18T03:56:37.349Z,7.60
2023-05-18T03:59:06.568Z,7.60
2023-05-18T04:01:35.271Z,7.60
2023-05-18T04:04:03.437Z,7.70
2023-05-18T04:06:35.204Z,7.80
2023-05-18T04:09:04.718Z,7.80
2023-05-18T04:11:34.173Z,7.90
2023-05-18T04:14:03.177Z,7.90
2023-05-18T04:16:31.509Z,7.80
2023-05-18T04:19:01.736Z,7.80
2023-05-18T04:21:36.075Z,7.80
2023-05-18T04:24:07.026Z,7.80
2023-05-18T04:26:38.548Z,7.80
2023-05-18T04:29:07.646Z,7.80
2023-05-18T04:31:36.613Z,7.80
2023-05-18T04:34:04.851Z,7.80
2023-05-18T04:36:35.023Z,7.80
2023-05-18T04:39:07.699Z,7.90
2023-05-18T04:41:37.394Z,8.00
2023-05-18T04:44:05.637Z,8.00
2023-05-18T04:46:34.936Z,8.00
2023-05-18T04:49:04.300Z,8.20
2023-05-18T04:51:36.839Z,8.20
2023-05-18T04:54:06.303Z,8.10
2023-05-18T04:56:34.406Z,8.10
2023-05-18T04:59:04.264Z,8.00
2023-05-18T05:01:32.335Z,8.00
2023-05-18T05:04:00.487Z,8.10
2023-05-18T05:06:28.635Z,8.20
2023-05-18T05:08:56.548Z,8.40
2023-05-18T05:11:24.661Z,8.50
2023-05-18T05:13:52.772Z,8.60
2023-05-18T05:16:22.297Z,8.60
2023-05-18T05:18:50.940Z,8.60
2023-05-18T05:21:19.109Z,8.60
2023-05-18T05:23:47.209Z,8.50
2023-05-18T05:26:15.317Z,8.50
2023-05-18T05:28:43.456Z,8.50
2023-05-18T05:31:11.495Z,8.50
2023-05-18T05:33:41.074Z,8.50
2023-05-18T05:36:10.047Z,8.60
2023-05-18T05:38:38.895Z,8.80
2023-05-18T05:41:07.244Z,8.50
2023-05-18T05:43:35.683Z,8.60
2023-05-18T05:46:04.148Z,8.60
2023-05-18T05:48:32.300Z,8.60
2023-05-18T05:51:01.772Z,8.60
2023-05-18T05:53:30.959Z,8.80
2023-05-18T05:55:59.151Z,8.90
2023-05-18T05:58:27.462Z,9.00
2023-05-18T06:00:59.583Z,9.00
2023-05-18T06:03:29.386Z,8.90
2023-05-18T06:06:03.497Z,8.90
2023-05-18T06:08:31.556Z,9.10
2023-05-18T06:10:59.564Z,9.00
2023-05-18T06:13:27.627Z,8.90
2023-05-18T06:15:57.159Z,9.00
2023-05-18T06:18:26.045Z,9.20
2023-05-18T06:20:58.610Z,9.40
2023-05-18T06:23:29.169Z,9.30
2023-05-18T06:26:17.731Z,9.30
2023-05-18T06:28:54.280Z,9.30
2023-05-18T06:31:28.317Z,9.20
2023-05-18T06:34:08.766Z,9.20
2023-05-18T06:36:38.199Z,9.10
2023-05-18T06:39:07.606Z,9.10
2023-05-18T06:41:35.867Z,9.40
2023-05-18T06:44:04.338Z,9.50
2023-05-18T06:46:37.254Z,9.60
2023-05-18T06:49:22.193Z,9.60
2023-05-18T06:51:50.440Z,9.70
2023-05-18T06:54:19.880Z,9.70
2023-05-18T06:56:49.249Z,9.50
2023-05-18T06:59:18.058Z,9.60
2023-05-18T07:01:46.110Z,9.60
2023-05-18T07:04:17.825Z,9.60
2023-05-18T07:06:46.117Z,9.80
2023-05-18T07:09:14.162Z,10.00
2023-05-18T07:11:45.431Z,9.90
2023-05-18T07:14:13.429Z,9.60
2023-05-18T07:16:41.332Z,9.40
2023-05-18T07:19:09.409Z,9.40
2023-05-18T07:21:37.545Z,9.60
2023-05-18T07:24:05.893Z,9.70
2023-05-18T07:26:33.918Z,10.00
2023-05-18T07:29:03.370Z,10.20
2023-05-18T07:31:33.462Z,10.40
2023-05-18T07:34:01.460Z,10.60
2023-05-18T07:36:29.396Z,10.70
2023-05-18T07:38:59.474Z,10.60
2023-05-18T07:41:28.086Z,10.50
2023-05-18T07:43:56.092Z,10.60
2023-05-18T07:46:25.764Z,10.70
2023-05-18T07:48:53.837Z,10.80
2023-05-18T07:51:22.081Z,10.80
2023-05-18T07:53:50.052Z,10.90
2023-05-18T07:56:18.130Z,11.10
2023-05-18T07:58:46.144Z,11.20
2023-05-18T08:01:14.124Z,11.50
2023-05-18T08:03:43.647Z,11.70
2023-05-18T08:06:14.155Z,11.80
2023-05-18T08:08:42.077Z,11.90
2023-05-18T08:11:10.088Z,11.80
2023-05-18T08:13:38.050Z,11.70
2023-05-18T08:16:11.810Z,11.60
2023-05-18T08:18:40.999Z,11.50
2023-05-18T08:21:10.519Z,11.80
2023-05-18T08:23:38.628Z,12.10
2023-05-18T08:26:08.163Z,12.30
2023-05-18T08:28:36.272Z,12.50
2023-05-18T08:31:04.315Z,12.60
2023-05-18T08:33:33.228Z,12.70
2023-05-18T08:36:01.148Z,13.20
2023-05-18T08:38:31.899Z,13.30
2023-05-18T08:41:07.569Z,13.70
2023-05-18T08:43:39.600Z,13.30
2023-05-18T08:46:14.606Z,13.20
2023-05-18T08:48:46.634Z,13.50
2023-05-18T08:51:20.472Z,13.70
2023-05-18T08:53:53.918Z,14.10
2023-05-18T08:56:24.714Z,14.00
2023-05-18T08:58:56.511Z,13.80
2023-05-18T09:01:28.830Z,13.40
2023-05-18T09:03:58.215Z,13.30
2023-05-18T09:06:28.343Z,13.00
2023-05-18T09:08:58.676Z,12.90
2023-05-18T09:11:28.440Z,12.60
2023-05-18T09:13:56.679Z,12.60
2023-05-18T09:16:24.906Z,12.60
2023-05-18T09:18:53.210Z,12.70
2023-05-18T09:21:21.309Z,12.70
2023-05-18T09:23:49.455Z,12.80
2023-05-18T09:26:21.022Z,13.10
2023-05-18T09:28:53.609Z,13.90
2023-05-18T09:31:24.371Z,14.60
2023-05-18T09:33:53.178Z,14.50
2023-05-18T09:36:28.354Z,14.60
2023-05-18T09:38:56.449Z,14.60
2023-05-18T09:41:27.980Z,14.70
2023-05-18T09:43:56.012Z,14.90
2023-05-18T09:46:24.056Z,15.10
2023-05-18T09:48:53.831Z,14.80
2023-05-18T09:51:25.232Z,14.90
2023-05-18T09:53:56.358Z,14.90
2023-05-18T09:56:26.757Z,15.80
2023-05-18T09:58:55.136Z,16.20
2023-05-18T10:01:23.174Z,16.80
2023-05-18T10:03:53.181Z,16.90
2023-05-18T10:06:22.504Z,16.50
2023-05-18T10:08:50.581Z,16.40
2023-05-18T10:11:19.828Z,15.70
2023-05-18T10:13:54.533Z,15.30
2023-05-18T10:16:25.140Z,15.40
2023-05-18T10:18:55.744Z,16.00
2023-05-18T10:21:28.523Z,16.10
2023-05-18T10:23:57.194Z,16.00
2023-05-18T10:26:29.732Z,15.70
2023-05-18T10:29:00.907Z,15.40
2023-05-18T10:31:31.289Z,15.30
2023-05-18T10:34:01.521Z,14.90
2023-05-18T10:36:32.704Z,14.40
2023-05-18T10:39:01.870Z,14.40
2023-05-18T10:41:31.614Z,14.30
2023-05-18T10:44:04.020Z,14.40
2023-05-18T10:46:32.961Z,14.90
2023-05-18T10:49:02.329Z,15.10
2023-05-18T10:51:31.889Z,15.60
2023-05-18T10:54:11.667Z,15.70
2023-05-18T10:56:41.175Z,15.70
2023-05-18T10:59:11.906Z,15.20
2023-05-18T11:01:42.011Z,15.40
2023-05-18T11:04:10.113Z,15.30
2023-05-18T11:06:38.150Z,15.20
2023-05-18T11:09:06.405Z,15.30
2023-05-18T11:11:52.182Z,15.30
2023-05-18T11:14:28.337Z,15.70
2023-05-18T11:17:17.687Z,16.00
2023-05-18T11:20:13.084Z,16.40
2023-05-18T11:22:51.290Z,17.00
2023-05-18T11:25:41.708Z,17.30
2023-05-18T11:28:11.921Z,17.30
2023-05-18T11:30:49.960Z,17.60
2023-05-18T11:33:23.257Z,17.70
2023-05-18T11:36:07.636Z,17.30
2023-05-18T11:38:56.142Z,17.20
2023-05-18T11:41:32.714Z,17.10
2023-05-18T11:44:18.086Z,16.90
2023-05-18T11:46:55.277Z,16.90
2023-05-18T11:49:25.758Z,16.70
2023-05-18T11:52:17.033Z,16.50
2023-05-18T11:54:47.887Z,15.90
2023-05-18T11:57:18.506Z,15.90
2023-05-18T11:59:48.327Z,16.20
2023-05-18T12:02:25.034Z,16.20
2023-05-18T12:04:54.818Z,16.20
2023-05-18T12:07:23.514Z,16.40
2023-05-18T12:09:51.884Z,16.70
2023-05-18T12:12:20.890Z,17.00
2023-05-18T12:14:55.449Z,16.80
2023-05-18T12:17:25.391Z,16.70
2023-05-18T12:19:53.507Z,16.60
2023-05-18T12:22:21.936Z,16.70
2023-05-18T12:24:53.506Z,16.50
2023-05-18T12:27:23.049Z,16.30
2023-05-18T12:29:51.220Z,16.10
2023-05-18T12:32:20.467Z,15.70
2023-05-18T12:34:52.539Z,15.80
2023-05-18T12:37:23.883Z,16.20
2023-05-18T12:39:55.237Z,15.80
2023-05-18T12:42:23.403Z,16.00
2023-05-18T12:44:51.667Z,16.20
2023-05-18T12:47:19.613Z,16.50
2023-05-18T12:49:51.108Z,16.80
2023-05-18T12:52:22.150Z,16.40
2023-05-18T12:54:55.573Z,16.40
2023-05-18T12:57:26.896Z,16.70
2023-05-18T12:59:55.418Z,16.40
2023-05-18T13:02:32.889Z,16.00
2023-05-18T13:05:10.720Z,16.00
2023-05-18T13:07:41.257Z,15.90
2023-05-18T13:10:11.670Z,16.00
2023-05-18T13:12:44.423Z,16.10
2023-05-18T13:15:16.538Z,16.10
2023-05-18T13:18:06.768Z,16.00
2023-05-18T13:20:39.771Z,16.20
2023-05-18T13:23:10.029Z,16.30
2023-05-18T13:25:38.312Z,16.30
2023-05-18T13:28:07.038Z,16.30
2023-05-18T13:30:35.070Z,16.40
2023-05-18T13:33:03.253Z,16.10
2023-05-18T13:35:32.429Z,16.10
2023-05-18T13:38:02.070Z,16.20
2023-05-18T13:40:30.853Z,16.20
2023-05-18T13:42:58.911Z,16.30
2023-05-18T13:45:27.233Z,16.40
2023-05-18T13:47:55.294Z,16.40
2023-05-18T13:50:23.746Z,16.50
2023-05-18T13:52:51.689Z,16.60
2023-05-18T13:55:21.095Z,16.30
2023-05-18T13:57:49.002Z,16.40
2023-05-18T14:00:17.958Z,16.10
2023-05-18T14:02:46.654Z,16.10
2023-05-18T14:05:16.434Z,16.30
2023-05-18T14:07:44.802Z,16.40
2023-05-18T14:10:14.294Z,16.50
2023-05-18T14:12:43.636Z,16.40
2023-05-18T14:15:14.758Z,16.40
2023-05-18T14:17:43.130Z,16.70
2023-05-18T14:20:12.004Z,16.70
2023-05-18T14:22:40.318Z,16.40
2023-05-18T14:25:09.005Z,16.40
2023-05-18T14:27:37.048Z,16.50
2023-05-18T14:30:07.843Z,16.40
2023-05-18T14:32:35.942Z,16.40
2023-05-18T14:35:03.912Z,16.40
2023-05-18T14:37:32.975Z,16.50
2023-05-18T14:40:01.304Z,16.40
2023-05-18T14:42:29.375Z,16.30
2023-05-18T14:44:57.331Z,16.30
2023-05-18T14:47:26.724Z,16.40
2023-05-18T14:49:54.723Z,16.50
2023-05-18T14:52:22.736Z,16.50
2023-05-18T14:54:50.758Z,16.60
2023-05-18T14:57:18.760Z,16.80
2023-05-18T14:59:46.747Z,16.70
2023-05-18T15:02:14.870Z,16.40
2023-05-18T15:04:44.257Z,16.40
2023-05-18T15:07:12.421Z,16.50
2023-05-18T15:09:40.512Z,16.40
2023-05-18T15:12:08.749Z,16.30
2023-05-18T15:14:37.891Z,16.30
2023-05-18T15:17:07.249Z,16.60
2023-05-18T15:19:35.459Z,16.50
2023-05-18T15:22:04.998Z,16.40
2023-05-18T15:24:32.993Z,16.30
2023-05-18T15:27:03.535Z,16.40
2023-05-18T15:29:31.654Z,16.50
2023-05-18T15:31:59.564Z,16.60
2023-05-18T15:34:27.568Z,16.60
2023-05-18T15:36:55.520Z,16.70
2023-05-18T15:39:24.868Z,16.80
2023-05-18T15:41:52.946Z,16.80
2023-05-18T15:44:20.966Z,16.80
2023-05-18T15:46:49.013Z,16.80
2023-05-18T15:49:17.090Z,16.80
2023-05-18T15:51:45.088Z,16.80
2023-05-18T15:54:13.026Z,16.80
2023-05-18T15:56:42.378Z,16.70
2023-05-18T15:59:10.476Z,16.80
2023-05-18T16:01:38.530Z,16.80
2023-05-18T16:04:06.618Z,16.90
2023-05-18T16:06:36.835Z,17.00
2023-05-18T16:09:04.979Z,17.10
2023-05-18T16:11:35.618Z,17.00
2023-05-18T16:14:05.382Z,17.10
2023-05-18T16:16:33.449Z,17.00
2023-05-18T16:19:02.232Z,16.90
2023-05-18T16:21:31.700Z,16.80
2023-05-18T16:24:00.470Z,16.80
2023-05-18T16:26:28.449Z,16.90
2023-05-18T16:28:56.549Z,16.50
2023-05-18T16:31:26.010Z,16.50
2023-05-18T16:33:54.320Z,16.60
2023-05-18T16:36:24.160Z,16.50
2023-05-18T16:38:52.278Z,16.40
2023-05-18T16:41:21.948Z,16.40
2023-05-18T16:43:50.026Z,16.30
2023-05-18T16:46:19.825Z,16.30
2023-05-18T16:48:49.276Z,16.30
2023-05-18T16:51:17.208Z,16.30
2023-05-18T16:53:45.190Z,16.50
2023-05-18T16:56:13.396Z,16.40
2023-05-18T16:58:41.428Z,16.60
2023-05-18T17:01:16.099Z,16.60
2023-05-18T17:03:56.588Z,16.60
2023-05-18T17:06:24.936Z,16.70
2023-05-18T17:08:57.654Z,16.80
2023-05-18T17:11:26.674Z,16.90
2023-05-18T17:13:54.792Z,16.90
2023-05-18T17:16:23.352Z,16.80
2023-05-18T17:18:51.401Z,16.70
2023-05-18T17:21:20.914Z,16.60
2023-05-18T17:23:48.865Z,16.50
2023-05-18T17:26:17.225Z,16.40
2023-05-18T17:28:45.167Z,16.30
2023-05-18T17:31:14.544Z,16.10
2023-05-18T17:33:46.986Z,15.90
2023-05-18T17:36:18.098Z,15.70
2023-05-18T17:38:47.776Z,15.50
2023-05-18T17:41:16.214Z,15.40
2023-05-18T17:43:44.218Z,15.50
2023-05-18T17:46:12.190Z,15.40
2023-05-18T17:48:40.221Z,15.30
2023-05-18T17:51:08.289Z,15.30
2023-05-18T17:53:41.728Z,15.10
2023-05-18T17:56:12.132Z,15.00
2023-05-18T17:58:40.145Z,14.80
2023-05-18T18:01:08.705Z,14.80
2023-05-18T18:03:37.369Z,14.80
2023-05-18T18:06:05.906Z,14.80
2023-05-18T18:08:34.077Z,14.70
2023-05-18T18:11:02.090Z,14.70
2023-05-18T18:13:31.464Z,14.60
2023-05-18T18:15:59.463Z,14.50
2023-05-18T18:18:27.704Z,14.50
2023-05-18T18:20:55.670Z,14.50
2023-05-18T18:23:23.635Z,14.30
2023-05-18T18:25:51.904Z,14.40
2023-05-18T18:28:19.798Z,14.40
2023-05-18T18:30:49.585Z,14.40
2023-05-18T18:33:17.809Z,14.20
2023-05-18T18:35:46.146Z,14.20
2023-05-18T18:38:14.771Z,14.00
2023-05-18T18:40:42.900Z,13.90
2023-05-18T18:43:11.144Z,13.80
2023-05-18T18:45:40.159Z,13.70
2023-05-18T18:48:10.457Z,13.70
2023-05-18T18:50:38.448Z,13.60
2023-05-18T18:53:06.405Z,13.50
2023-05-18T18:55:34.643Z,13.50
2023-05-18T18:58:02.840Z,13.40
2023-05-18T19:00:31.148Z,13.40
2023-05-18T19:02:59.198Z,13.20
2023-05-18T19:05:30.894Z,13.10
2023-05-18T19:07:59.076Z,12.90
2023-05-18T19:10:27.041Z,12.90
2023-05-18T19:12:55.078Z,12.80
2023-05-18T19:15:23.043Z,12.70
2023-05-18T19:17:53.677Z,12.70
2023-05-18T19:20:23.031Z,12.70
2023-05-18T19:22:53.448Z,12.50
2023-05-18T19:25:22.075Z,12.50
2023-05-18T19:27:50.034Z,12.40
2023-05-18T19:30:21.098Z,12.40
2023-05-18T19:32:50.154Z,12.30
2023-05-18T19:35:19.896Z,12.20
2023-05-18T19:37:48.523Z,12.10
2023-05-18T19:40:18.444Z,12.00
2023-05-18T19:42:46.503Z,11.90
2023-05-18T19:45:14.502Z,11.80
2023-05-18T19:47:42.540Z,11.70
2023-05-18T19:50:10.723Z,11.60
2023-05-18T19:52:38.755Z,11.60
2023-05-18T19:55:07.639Z,11.50
2023-05-18T19:57:37.172Z,11.50
2023-05-18T20:00:07.025Z,11.50
2023-05-18T20:02:40.231Z,11.50
2023-05-18T20:05:12.628Z,11.40
2023-05-18T20:07:41.000Z,11.40
2023-05-18T20:10:08.958Z,11.30
2023-05-18T20:12:38.360Z,11.30
2023-05-18T20:15:07.651Z,11.20
2023-05-18T20:17:35.840Z,11.10
2023-05-18T20:20:06.136Z,11.00
2023-05-18T20:22:34.285Z,11.00
2023-05-18T20:25:05.372Z,11.00
2023-05-18T20:27:33.538Z,10.90
2023-05-18T20:30:03.142Z,10.80
2023-05-18T20:32:32.654Z,10.80
2023-05-18T20:35:00.799Z,10.70
2023-05-18T20:37:28.825Z,10.60
2023-05-18T20:39:57.478Z,10.50
2023-05-18T20:42:31.861Z,10.40
2023-05-18T20:44:59.893Z,10.30
2023-05-18T20:47:31.687Z,10.30
2023-05-18T20:49:59.878Z,10.20
2023-05-18T20:52:28.961Z,10.10
2023-05-18T20:54:57.572Z,10.10
2023-05-18T20:57:27.740Z,10.00
2023-05-18T20:59:55.887Z,9.90
2023-05-18T21:02:23.883Z,9.80
2023-05-18T21:04:57.636Z,9.70
2023-05-18T21:07:25.751Z,9.70
2023-05-18T21:09:53.722Z,9.60
2023-05-18T21:12:21.759Z,9.60
2023-05-18T21:14:49.650Z,9.50
2023-05-18T21:17:17.655Z,9.50
2023-05-18T21:19:45.568Z,9.40
2023-05-18T21:22:15.869Z,9.30
2023-05-18T21:24:43.779Z,9.30
2023-05-18T21:27:12.076Z,9.30
2023-05-18T21:29:40.087Z,9.30
2023-05-18T21:32:08.687Z,9.20
2023-05-18T21:34:36.878Z,9.20
2023-05-18T21:37:05.096Z,9.20
2023-05-18T21:39:34.470Z,9.10
2023-05-18T21:42:03.384Z,9.10
2023-05-18T21:44:31.316Z,9.10
2023-05-18T21:46:59.308Z,9.00
2023-05-18T21:49:27.256Z,9.00
2023-05-18T21:51:56.121Z,8.90
2023-05-18T21:54:24.196Z,8.90
2023-05-18T21:56:53.635Z,8.80
2023-05-18T21:59:21.679Z,8.80
2023-05-18T22:01:49.622Z,8.80
2023-05-18T22:04:18.294Z,8.80
2023-05-18T22:06:46.308Z,8.80
2023-05-18T22:09:14.321Z,8.70
2023-05-18T22:11:42.315Z,8.60
2023-05-18T22:14:11.745Z,8.60
2023-05-18T22:16:39.823Z,8.50
2023-05-18T22:19:07.926Z,8.50
2023-05-18T22:21:36.097Z,8.50
2023-05-18T22:24:04.105Z,8.50
2023-05-18T22:26:32.217Z,8.40
2023-05-18T22:29:00.228Z,8.40
2023-05-18T22:31:29.688Z,8.40
2023-05-18T22:33:57.710Z,8.30
2023-05-18T22:36:27.292Z,8.20
2023-05-18T22:38:56.340Z,8.20
2023-05-18T22:41:24.421Z,8.20
2023-05-18T22:43:52.418Z,8.20
2023-05-18T22:46:20.678Z,8.10
2023-05-18T22:48:50.187Z,8.10
2023-05-18T22:51:18.626Z,8.10
2023-05-18T22:53:46.725Z,8.10
2023-05-18T22:56:18.334Z,8.10
2023-05-18T22:58:46.351Z,8.00
2023-05-18T23:01:14.468Z,8.00
2023-05-18T23:03:42.579Z,7.90
2023-05-18T23:06:11.932Z,7.90
2023-05-18T23:08:39.950Z,7.90
2023-05-18T23:11:08.028Z,7.80
2023-05-18T23:13:37.578Z,7.80
2023-05-18T23:16:10.207Z,7.80
2023-05-18T23:18:38.704Z,7.80
2023-05-18T23:21:09.046Z,7.80
2023-05-18T23:23:38.966Z,7.80
2023-05-18T23:26:07.010Z,7.80
2023-05-18T23:28:35.032Z,7.70
2023-05-18T23:31:03.037Z,7.80
2023-05-18T23:33:31.619Z,7.80
2023-05-18T23:36:03.948Z,7.70
2023-05-18T23:38:37.590Z,7.70
2023-05-18T23:41:09.437Z,7.60
2023-05-18T23:43:38.103Z,7.60
2023-05-18T23:46:07.425Z,7.60
2023-05-18T23:48:36.314Z,7.50
2023-05-18T23:51:05.045Z,7.50
2023-05-18T23:53:34.041Z,7.40
2023-05-18T23:56:03.400Z,7.40
2023-05-18T23:58:33.529Z,7.40
